Ana Sayfa
METAR-TAF:

METAR-TAF

Havaalanları :

Monroe, Kuzey Carolina, Amerika Birleşik Devletleri

Enlem: 35-01-01N, Boylam: 080-37-14W, yükseklik: 207 m

Güncel hava durumu gözlemi

Rapor saat 15:53 UTC de 29 dakika önce yapıldı.
Sakin rüzgar
Sıcaklık 17°C
Nem 68%
Basınç 1020 hPa
Görüş mesafesi: 16.1 km
11000 ft yükseklikte parçalı çok bulutlu

METAR: KEQY 051553Z AUTO 00000KT 10SM BKN110 17/11 A3012 RMK AO2 SLP206 T01670111 $

Saat: 12:22 (16:22 UTC)


TAF: eksik

4.000'den fazla havaalanı için hava durumu gözlemleri ve tahminleri (METAR ve TAF raporları).

Kullanılabilir istasyonlar harita üzerinde sarı ve kırmızı noktalarla gösterilir.

İstasyonun adını görmek için fareyi noktanın üzerinde gezdirin.

Sonrasında hava gözlem ve tahminlerini görmek için tıklayın.

Haritayı değiştirmek için: yaklaştırmak için siyah artı işaretli yeşil düğmeye ve uzaklaştırmak için de eksi işaretli düğmeye hızla tıklayın; bitişik haritalar için yeşil okları kullanın.


METAR-TAF: